sensor_id;sensor_type;location;lat;lon;timestamp;temperature;humidity
52034;DHT22;38045;52.988;6.536;2022-09-09T00:06:28;14.50;99.90
52034;DHT22;38045;52.988;6.536;2022-09-09T00:09:02;14.50;99.90
52034;DHT22;38045;52.988;6.536;2022-09-09T00:11:56;14.40;99.90
52034;DHT22;38045;52.988;6.536;2022-09-09T00:14:37;14.40;99.90
52034;DHT22;38045;52.988;6.536;2022-09-09T00:20:01;14.30;99.90
52034;DHT22;38045;52.988;6.536;2022-09-09T00:22:30;14.30;99.90
52034;DHT22;38045;52.988;6.536;2022-09-09T00:25:14;14.30;99.90
52034;DHT22;38045;52.988;6.536;2022-09-09T00:27:47;14.30;99.90
52034;DHT22;38045;52.988;6.536;2022-09-09T00:30:20;14.30;99.90
52034;DHT22;38045;52.988;6.536;2022-09-09T00:32:49;14.20;99.90
52034;DHT22;38045;52.988;6.536;2022-09-09T00:35:33;14.20;99.90
52034;DHT22;38045;52.988;6.536;2022-09-09T00:38:15;14.20;99.90
52034;DHT22;38045;52.988;6.536;2022-09-09T00:41:03;14.20;99.90
52034;DHT22;38045;52.988;6.536;2022-09-09T00:43:31;14.20;99.90
52034;DHT22;38045;52.988;6.536;2022-09-09T00:46:19;14.20;99.90
52034;DHT22;38045;52.988;6.536;2022-09-09T00:52:50;14.20;99.90
52034;DHT22;38045;52.988;6.536;2022-09-09T00:55:19;14.20;99.90
52034;DHT22;38045;52.988;6.536;2022-09-09T00:57:49;14.20;99.90
52034;DHT22;38045;52.988;6.536;2022-09-09T01:00:24;14.10;99.90
52034;DHT22;38045;52.988;6.536;2022-09-09T01:03:22;14.00;99.90
52034;DHT22;38045;52.988;6.536;2022-09-09T01:27:32;13.90;99.90
52034;DHT22;38045;52.988;6.536;2022-09-09T01:29:59;13.90;99.90
52034;DHT22;38045;52.988;6.536;2022-09-09T01:32:48;13.80;99.90
52034;DHT22;38045;52.988;6.536;2022-09-09T01:35:40;13.90;99.90
52034;DHT22;38045;52.988;6.536;2022-09-09T01:38:09;13.90;99.90
52034;DHT22;38045;52.988;6.536;2022-09-09T01:40:35;13.90;99.90
52034;DHT22;38045;52.988;6.536;2022-09-09T01:43:01;13.90;99.90
52034;DHT22;38045;52.988;6.536;2022-09-09T01:45:28;13.90;99.90
52034;DHT22;38045;52.988;6.536;2022-09-09T01:47:53;13.90;99.90
52034;DHT22;38045;52.988;6.536;2022-09-09T01:50:20;13.90;99.90
52034;DHT22;38045;52.988;6.536;2022-09-09T01:52:49;13.90;99.90
52034;DHT22;38045;52.988;6.536;2022-09-09T01:55:16;13.90;99.90
52034;DHT22;38045;52.988;6.536;2022-09-09T02:00:09;13.90;99.90
52034;DHT22;38045;52.988;6.536;2022-09-09T02:07:50;13.90;99.90
52034;DHT22;38045;52.988;6.536;2022-09-09T02:10:33;14.00;99.90
52034;DHT22;38045;52.988;6.536;2022-09-09T02:13:10;14.00;99.90
52034;DHT22;38045;52.988;6.536;2022-09-09T02:18:19;14.10;99.90
52034;DHT22;38045;52.988;6.536;2022-09-09T02:20:50;14.00;99.90
52034;DHT22;38045;52.988;6.536;2022-09-09T02:23:17;14.10;99.90
52034;DHT22;38045;52.988;6.536;2022-09-09T02:25:45;14.20;99.90
52034;DHT22;38045;52.988;6.536;2022-09-09T02:28:13;14.10;99.90
52034;DHT22;38045;52.988;6.536;2022-09-09T02:30:40;14.10;99.90
52034;DHT22;38045;52.988;6.536;2022-09-09T02:33:07;14.20;99.90
52034;DHT22;38045;52.988;6.536;2022-09-09T02:35:35;14.20;99.90
52034;DHT22;38045;52.988;6.536;2022-09-09T02:38:07;14.20;99.90
52034;DHT22;38045;52.988;6.536;2022-09-09T02:40:33;14.30;99.90
52034;DHT22;38045;52.988;6.536;2022-09-09T02:42:59;14.30;99.90
52034;DHT22;38045;52.988;6.536;2022-09-09T02:45:29;14.30;99.90
52034;DHT22;38045;52.988;6.536;2022-09-09T02:50:30;14.40;99.90
52034;DHT22;38045;52.988;6.536;2022-09-09T02:55:45;14.40;99.90
52034;DHT22;38045;52.988;6.536;2022-09-09T02:58:15;14.50;99.90
52034;DHT22;38045;52.988;6.536;2022-09-09T03:00:47;14.50;99.90
52034;DHT22;38045;52.988;6.536;2022-09-09T03:03:13;14.50;99.90
52034;DHT22;38045;52.988;6.536;2022-09-09T03:05:39;14.50;99.90
52034;DHT22;38045;52.988;6.536;2022-09-09T03:08:04;14.50;99.90
52034;DHT22;38045;52.988;6.536;2022-09-09T03:10:31;14.60;99.90
52034;DHT22;38045;52.988;6.536;2022-09-09T03:12:57;14.50;99.90
52034;DHT22;38045;52.988;6.536;2022-09-09T03:15:24;14.60;99.90
52034;DHT22;38045;52.988;6.536;2022-09-09T03:17:49;14.60;99.90
52034;DHT22;38045;52.988;6.536;2022-09-09T03:20:16;14.60;99.90
52034;DHT22;38045;52.988;6.536;2022-09-09T03:22:41;14.60;99.90
52034;DHT22;38045;52.988;6.536;2022-09-09T03:25:09;14.60;99.90
52034;DHT22;38045;52.988;6.536;2022-09-09T03:27:34;14.60;99.90
52034;DHT22;38045;52.988;6.536;2022-09-09T03:30:00;14.60;99.90
52034;DHT22;38045;52.988;6.536;2022-09-09T03:32:29;14.60;99.90
52034;DHT22;38045;52.988;6.536;2022-09-09T03:34:56;14.60;99.90
52034;DHT22;38045;52.988;6.536;2022-09-09T03:37:22;14.60;99.90
52034;DHT22;38045;52.988;6.536;2022-09-09T03:39:48;14.60;99.90
52034;DHT22;38045;52.988;6.536;2022-09-09T03:42:14;14.60;99.90
52034;DHT22;38045;52.988;6.536;2022-09-09T03:44:40;14.50;99.90
52034;DHT22;38045;52.988;6.536;2022-09-09T03:47:07;14.60;99.90
52034;DHT22;38045;52.988;6.536;2022-09-09T03:49:33;14.50;99.90
52034;DHT22;38045;52.988;6.536;2022-09-09T03:51:58;14.50;99.90
52034;DHT22;38045;52.988;6.536;2022-09-09T03:54:24;14.60;99.90
52034;DHT22;38045;52.988;6.536;2022-09-09T03:56:50;14.50;99.90
52034;DHT22;38045;52.988;6.536;2022-09-09T03:59:16;14.50;99.90
52034;DHT22;38045;52.988;6.536;2022-09-09T04:01:41;14.50;99.90
52034;DHT22;38045;52.988;6.536;2022-09-09T04:04:08;14.50;99.90
52034;DHT22;38045;52.988;6.536;2022-09-09T04:06:34;14.50;99.90
52034;DHT22;38045;52.988;6.536;2022-09-09T04:09:00;14.50;99.90
52034;DHT22;38045;52.988;6.536;2022-09-09T04:11:28;14.50;99.90
52034;DHT22;38045;52.988;6.536;2022-09-09T04:13:53;14.50;99.90
52034;DHT22;38045;52.988;6.536;2022-09-09T04:16:19;14.40;99.90
52034;DHT22;38045;52.988;6.536;2022-09-09T04:18:46;14.40;99.90
52034;DHT22;38045;52.988;6.536;2022-09-09T04:21:11;14.40;99.90
52034;DHT22;38045;52.988;6.536;2022-09-09T04:23:38;14.40;99.90
52034;DHT22;38045;52.988;6.536;2022-09-09T04:26:05;14.40;99.90
52034;DHT22;38045;52.988;6.536;2022-09-09T04:28:33;14.40;99.90
52034;DHT22;38045;52.988;6.536;2022-09-09T04:31:25;14.40;99.90
52034;DHT22;38045;52.988;6.536;2022-09-09T04:33:51;14.50;99.90
52034;DHT22;38045;52.988;6.536;2022-09-09T04:36:17;14.50;99.90
52034;DHT22;38045;52.988;6.536;2022-09-09T04:38:45;14.40;99.90
52034;DHT22;38045;52.988;6.536;2022-09-09T04:41:11;14.40;99.90
52034;DHT22;38045;52.988;6.536;2022-09-09T04:43:38;14.40;99.90
52034;DHT22;38045;52.988;6.536;2022-09-09T04:46:04;14.40;99.90
52034;DHT22;38045;52.988;6.536;2022-09-09T04:48:30;14.40;99.90
52034;DHT22;38045;52.988;6.536;2022-09-09T04:51:09;14.40;99.90
52034;DHT22;38045;52.988;6.536;2022-09-09T04:53:36;14.40;99.90
52034;DHT22;38045;52.988;6.536;2022-09-09T04:56:05;14.40;99.90
52034;DHT22;38045;52.988;6.536;2022-09-09T04:58:31;14.40;99.90
52034;DHT22;38045;52.988;6.536;2022-09-09T05:01:08;14.40;99.90
52034;DHT22;38045;52.988;6.536;2022-09-09T05:03:34;14.30;99.90
52034;DHT22;38045;52.988;6.536;2022-09-09T05:06:07;14.50;99.90
52034;DHT22;38045;52.988;6.536;2022-09-09T05:08:34;14.30;99.90
52034;DHT22;38045;52.988;6.536;2022-09-09T05:11:00;14.30;99.90
52034;DHT22;38045;52.988;6.536;2022-09-09T05:13:26;14.30;99.90
52034;DHT22;38045;52.988;6.536;2022-09-09T05:15:53;14.30;99.90
52034;DHT22;38045;52.988;6.536;2022-09-09T05:18:19;14.20;99.90
52034;DHT22;38045;52.988;6.536;2022-09-09T05:20:44;14.20;99.90
52034;DHT22;38045;52.988;6.536;2022-09-09T05:23:10;14.30;99.90
52034;DHT22;38045;52.988;6.536;2022-09-09T05:25:37;14.20;99.90
52034;DHT22;38045;52.988;6.536;2022-09-09T05:28:03;14.30;99.90
52034;DHT22;38045;52.988;6.536;2022-09-09T05:30:28;14.20;99.90
52034;DHT22;38045;52.988;6.536;2022-09-09T05:32:56;14.20;99.90
52034;DHT22;38045;52.988;6.536;2022-09-09T05:35:22;14.20;99.90
52034;DHT22;38045;52.988;6.536;2022-09-09T05:37:48;14.20;99.90
52034;DHT22;38045;52.988;6.536;2022-09-09T05:40:14;14.20;99.90
52034;DHT22;38045;52.988;6.536;2022-09-09T05:42:40;14.20;99.90
52034;DHT22;38045;52.988;6.536;2022-09-09T05:45:07;14.20;99.90
52034;DHT22;38045;52.988;6.536;2022-09-09T05:47:33;14.20;99.90
52034;DHT22;38045;52.988;6.536;2022-09-09T05:49:59;14.20;99.90
52034;DHT22;38045;52.988;6.536;2022-09-09T05:52:24;14.20;99.90
52034;DHT22;38045;52.988;6.536;2022-09-09T05:54:51;14.20;99.90
52034;DHT22;38045;52.988;6.536;2022-09-09T05:57:16;14.20;99.90
52034;DHT22;38045;52.988;6.536;2022-09-09T05:59:42;14.20;99.90
52034;DHT22;38045;52.988;6.536;2022-09-09T06:02:08;14.20;99.90
52034;DHT22;38045;52.988;6.536;2022-09-09T06:04:34;14.20;99.90
52034;DHT22;38045;52.988;6.536;2022-09-09T06:07:00;14.20;99.90
52034;DHT22;38045;52.988;6.536;2022-09-09T06:09:26;14.20;99.90
52034;DHT22;38045;52.988;6.536;2022-09-09T06:11:52;14.20;99.90
52034;DHT22;38045;52.988;6.536;2022-09-09T06:14:17;14.20;99.90
52034;DHT22;38045;52.988;6.536;2022-09-09T06:16:47;14.20;99.90
52034;DHT22;38045;52.988;6.536;2022-09-09T06:19:12;14.20;99.90
52034;DHT22;38045;52.988;6.536;2022-09-09T06:21:38;14.30;99.90
52034;DHT22;38045;52.988;6.536;2022-09-09T06:24:04;14.20;99.90
52034;DHT22;38045;52.988;6.536;2022-09-09T06:26:32;14.30;99.90
52034;DHT22;38045;52.988;6.536;2022-09-09T06:28:59;14.30;99.90
52034;DHT22;38045;52.988;6.536;2022-09-09T06:31:27;14.30;99.90
52034;DHT22;38045;52.988;6.536;2022-09-09T06:33:56;14.40;99.90
52034;DHT22;38045;52.988;6.536;2022-09-09T06:36:24;14.40;99.90
52034;DHT22;38045;52.988;6.536;2022-09-09T06:38:50;14.40;99.90
52034;DHT22;38045;52.988;6.536;2022-09-09T06:41:18;14.40;99.90
52034;DHT22;38045;52.988;6.536;2022-09-09T06:43:45;14.40;99.90
52034;DHT22;38045;52.988;6.536;2022-09-09T06:46:11;14.50;99.90
52034;DHT22;38045;52.988;6.536;2022-09-09T06:48:39;14.50;99.90
52034;DHT22;38045;52.988;6.536;2022-09-09T06:51:11;14.50;99.90
52034;DHT22;38045;52.988;6.536;2022-09-09T06:53:39;14.50;99.90
52034;DHT22;38045;52.988;6.536;2022-09-09T06:56:28;14.50;99.90
52034;DHT22;38045;52.988;6.536;2022-09-09T06:58:57;14.60;99.90
52034;DHT22;38045;52.988;6.536;2022-09-09T07:01:31;14.50;99.90
52034;DHT22;38045;52.988;6.536;2022-09-09T07:03:58;14.60;99.90
52034;DHT22;38045;52.988;6.536;2022-09-09T07:06:32;14.60;99.90
52034;DHT22;38045;52.988;6.536;2022-09-09T07:08:59;14.60;99.90
52034;DHT22;38045;52.988;6.536;2022-09-09T07:11:37;14.70;99.90
52034;DHT22;38045;52.988;6.536;2022-09-09T07:14:02;14.80;99.90
52034;DHT22;38045;52.988;6.536;2022-09-09T07:16:28;14.80;99.90
52034;DHT22;38045;52.988;6.536;2022-09-09T07:18:55;14.80;99.90
52034;DHT22;38045;52.988;6.536;2022-09-09T07:21:24;14.80;99.90
52034;DHT22;38045;52.988;6.536;2022-09-09T07:23:51;14.80;99.90
52034;DHT22;38045;52.988;6.536;2022-09-09T07:26:20;14.80;99.90
52034;DHT22;38045;52.988;6.536;2022-09-09T07:28:46;14.90;99.90
52034;DHT22;38045;52.988;6.536;2022-09-09T07:31:15;15.00;99.90
52034;DHT22;38045;52.988;6.536;2022-09-09T07:33:42;15.00;99.90
52034;DHT22;38045;52.988;6.536;2022-09-09T07:38:48;15.20;99.90
52034;DHT22;38045;52.988;6.536;2022-09-09T07:41:23;15.20;99.90
52034;DHT22;38045;52.988;6.536;2022-09-09T07:43:49;15.30;99.90
52034;DHT22;38045;52.988;6.536;2022-09-09T07:46:17;15.40;99.90
52034;DHT22;38045;52.988;6.536;2022-09-09T07:48:45;15.40;99.90
52034;DHT22;38045;52.988;6.536;2022-09-09T07:51:14;15.40;99.90
52034;DHT22;38045;52.988;6.536;2022-09-09T07:53:45;15.50;99.90
52034;DHT22;38045;52.988;6.536;2022-09-09T07:56:14;15.50;99.90
52034;DHT22;38045;52.988;6.536;2022-09-09T07:58:44;15.60;99.90
52034;DHT22;38045;52.988;6.536;2022-09-09T08:01:15;15.70;99.90
52034;DHT22;38045;52.988;6.536;2022-09-09T08:03:42;15.80;99.90
52034;DHT22;38045;52.988;6.536;2022-09-09T08:06:13;15.90;99.90
52034;DHT22;38045;52.988;6.536;2022-09-09T08:08:40;15.90;99.90
52034;DHT22;38045;52.988;6.536;2022-09-09T08:11:10;15.90;99.90
52034;DHT22;38045;52.988;6.536;2022-09-09T08:13:37;15.90;99.90
52034;DHT22;38045;52.988;6.536;2022-09-09T08:16:08;15.90;99.90
52034;DHT22;38045;52.988;6.536;2022-09-09T08:18:35;16.00;99.90
52034;DHT22;38045;52.988;6.536;2022-09-09T08:21:14;16.00;99.90
52034;DHT22;38045;52.988;6.536;2022-09-09T08:23:41;16.10;99.90
52034;DHT22;38045;52.988;6.536;2022-09-09T08:26:12;16.10;99.90
52034;DHT22;38045;52.988;6.536;2022-09-09T08:28:39;16.20;99.90
52034;DHT22;38045;52.988;6.536;2022-09-09T08:33:53;16.50;99.90
52034;DHT22;38045;52.988;6.536;2022-09-09T08:36:20;16.60;99.90
52034;DHT22;38045;52.988;6.536;2022-09-09T08:38:52;16.70;99.90
52034;DHT22;38045;52.988;6.536;2022-09-09T08:44:27;17.00;99.90
52034;DHT22;38045;52.988;6.536;2022-09-09T08:49:35;16.90;99.90
52034;DHT22;38045;52.988;6.536;2022-09-09T08:52:12;17.10;99.90
52034;DHT22;38045;52.988;6.536;2022-09-09T08:54:41;17.10;99.90
52034;DHT22;38045;52.988;6.536;2022-09-09T08:57:11;17.00;99.90
52034;DHT22;38045;52.988;6.536;2022-09-09T08:59:39;17.00;99.90
52034;DHT22;38045;52.988;6.536;2022-09-09T09:02:12;17.20;99.90
52034;DHT22;38045;52.988;6.536;2022-09-09T09:07:41;17.40;99.90
52034;DHT22;38045;52.988;6.536;2022-09-09T09:10:15;17.50;99.90
52034;DHT22;38045;52.988;6.536;2022-09-09T09:12:47;17.40;99.90
52034;DHT22;38045;52.988;6.536;2022-09-09T09:15:39;17.50;99.90
52034;DHT22;38045;52.988;6.536;2022-09-09T09:18:09;17.60;99.90
52034;DHT22;38045;52.988;6.536;2022-09-09T09:21:08;17.70;99.90
52034;DHT22;38045;52.988;6.536;2022-09-09T09:23:48;17.70;99.90
52034;DHT22;38045;52.988;6.536;2022-09-09T09:26:16;17.70;99.90
52034;DHT22;38045;52.988;6.536;2022-09-09T09:28:42;17.70;99.90
52034;DHT22;38045;52.988;6.536;2022-09-09T09:31:11;17.80;99.90
52034;DHT22;38045;52.988;6.536;2022-09-09T09:36:07;18.00;99.90
52034;DHT22;38045;52.988;6.536;2022-09-09T09:38:34;18.10;99.90
52034;DHT22;38045;52.988;6.536;2022-09-09T09:41:01;18.10;99.90
52034;DHT22;38045;52.988;6.536;2022-09-09T09:43:31;18.10;99.90
52034;DHT22;38045;52.988;6.536;2022-09-09T09:45:57;18.00;99.90
52034;DHT22;38045;52.988;6.536;2022-09-09T09:48:24;18.20;99.90
52034;DHT22;38045;52.988;6.536;2022-09-09T09:51:00;18.30;99.90
52034;DHT22;38045;52.988;6.536;2022-09-09T09:53:33;18.30;99.90
52034;DHT22;38045;52.988;6.536;2022-09-09T09:56:11;18.30;99.90
52034;DHT22;38045;52.988;6.536;2022-09-09T09:58:49;18.20;99.90
52034;DHT22;38045;52.988;6.536;2022-09-09T10:01:25;18.20;99.90
52034;DHT22;38045;52.988;6.536;2022-09-09T10:06:38;18.10;99.90
52034;DHT22;38045;52.988;6.536;2022-09-09T10:09:28;18.10;99.90
52034;DHT22;38045;52.988;6.536;2022-09-09T10:17:57;17.90;99.90
52034;DHT22;38045;52.988;6.536;2022-09-09T10:20:50;18.20;99.90
52034;DHT22;38045;52.988;6.536;2022-09-09T10:23:31;18.30;99.90
52034;DHT22;38045;52.988;6.536;2022-09-09T10:26:16;18.50;99.90
52034;DHT22;38045;52.988;6.536;2022-09-09T10:29:16;18.60;99.90
52034;DHT22;38045;52.988;6.536;2022-09-09T10:35:02;18.90;99.90
52034;DHT22;38045;52.988;6.536;2022-09-09T10:42:34;18.80;99.90
52034;DHT22;38045;52.988;6.536;2022-09-09T10:48:37;18.70;99.90
52034;DHT22;38045;52.988;6.536;2022-09-09T10:56:33;19.20;99.90
52034;DHT22;38045;52.988;6.536;2022-09-09T11:01:48;19.60;99.90
52034;DHT22;38045;52.988;6.536;2022-09-09T11:04:22;19.80;99.90
52034;DHT22;38045;52.988;6.536;2022-09-09T11:06:53;20.00;99.90
52034;DHT22;38045;52.988;6.536;2022-09-09T11:09:23;20.10;99.90
52034;DHT22;38045;52.988;6.536;2022-09-09T11:11:57;20.20;99.90
52034;DHT22;38045;52.988;6.536;2022-09-09T11:14:40;20.00;99.90
52034;DHT22;38045;52.988;6.536;2022-09-09T11:17:15;19.80;99.90
52034;DHT22;38045;52.988;6.536;2022-09-09T11:19:44;19.70;99.90
52034;DHT22;38045;52.988;6.536;2022-09-09T11:24:59;19.70;99.90
52034;DHT22;38045;52.988;6.536;2022-09-09T11:27:31;19.70;99.90
52034;DHT22;38045;52.988;6.536;2022-09-09T11:30:19;19.60;99.90
52034;DHT22;38045;52.988;6.536;2022-09-09T11:38:45;19.40;99.90
52034;DHT22;38045;52.988;6.536;2022-09-09T11:41:12;19.40;99.90
52034;DHT22;38045;52.988;6.536;2022-09-09T11:46:06;19.20;99.90
52034;DHT22;38045;52.988;6.536;2022-09-09T11:48:41;19.30;99.90
52034;DHT22;38045;52.988;6.536;2022-09-09T11:51:30;19.30;99.90
52034;DHT22;38045;52.988;6.536;2022-09-09T11:54:01;19.30;99.90
52034;DHT22;38045;52.988;6.536;2022-09-09T11:56:32;19.30;99.90
52034;DHT22;38045;52.988;6.536;2022-09-09T11:59:03;19.30;99.90
52034;DHT22;38045;52.988;6.536;2022-09-09T12:09:55;18.90;99.90
52034;DHT22;38045;52.988;6.536;2022-09-09T12:12:23;18.90;99.90
52034;DHT22;38045;52.988;6.536;2022-09-09T12:17:43;19.10;99.90
52034;DHT22;38045;52.988;6.536;2022-09-09T12:20:31;19.20;99.90
52034;DHT22;38045;52.988;6.536;2022-09-09T12:28:33;19.70;99.90
52034;DHT22;38045;52.988;6.536;2022-09-09T12:34:55;20.00;99.90
52034;DHT22;38045;52.988;6.536;2022-09-09T12:39:57;20.40;99.90
52034;DHT22;38045;52.988;6.536;2022-09-09T12:42:26;20.60;99.90
52034;DHT22;38045;52.988;6.536;2022-09-09T12:45:00;20.50;99.90
52034;DHT22;38045;52.988;6.536;2022-09-09T12:47:55;20.30;99.90
52034;DHT22;38045;52.988;6.536;2022-09-09T12:50:23;20.30;99.90
52034;DHT22;38045;52.988;6.536;2022-09-09T12:52:53;20.20;99.90
52034;DHT22;38045;52.988;6.536;2022-09-09T12:55:21;20.10;99.90
52034;DHT22;38045;52.988;6.536;2022-09-09T12:57:50;20.20;99.90
52034;DHT22;38045;52.988;6.536;2022-09-09T13:00:22;20.60;99.90
52034;DHT22;38045;52.988;6.536;2022-09-09T13:02:56;20.80;99.90
52034;DHT22;38045;52.988;6.536;2022-09-09T13:05:34;21.10;99.90
52034;DHT22;38045;52.988;6.536;2022-09-09T13:08:04;21.20;99.90
52034;DHT22;38045;52.988;6.536;2022-09-09T13:10:36;21.10;99.90
52034;DHT22;38045;52.988;6.536;2022-09-09T13:13:05;20.70;99.90
52034;DHT22;38045;52.988;6.536;2022-09-09T13:15:37;20.60;99.90
52034;DHT22;38045;52.988;6.536;2022-09-09T13:18:05;20.40;99.90
52034;DHT22;38045;52.988;6.536;2022-09-09T13:20:33;20.40;99.90
52034;DHT22;38045;52.988;6.536;2022-09-09T13:22:59;20.40;99.90
52034;DHT22;38045;52.988;6.536;2022-09-09T13:25:27;20.40;99.90
52034;DHT22;38045;52.988;6.536;2022-09-09T13:30:28;20.70;99.90
52034;DHT22;38045;52.988;6.536;2022-09-09T13:33:21;20.70;99.90
52034;DHT22;38045;52.988;6.536;2022-09-09T13:35:57;20.50;99.90
52034;DHT22;38045;52.988;6.536;2022-09-09T13:38:23;20.40;99.90
52034;DHT22;38045;52.988;6.536;2022-09-09T13:40:58;20.20;99.90
52034;DHT22;38045;52.988;6.536;2022-09-09T13:43:27;20.10;99.90
52034;DHT22;38045;52.988;6.536;2022-09-09T13:45:59;20.00;99.90
52034;DHT22;38045;52.988;6.536;2022-09-09T13:48:27;20.00;99.90
52034;DHT22;38045;52.988;6.536;2022-09-09T13:50:57;20.10;99.90
52034;DHT22;38045;52.988;6.536;2022-09-09T13:53:23;20.20;99.90
52034;DHT22;38045;52.988;6.536;2022-09-09T13:55:49;20.40;99.90
52034;DHT22;38045;52.988;6.536;2022-09-09T13:58:16;20.50;99.90
52034;DHT22;38045;52.988;6.536;2022-09-09T14:00:43;20.40;99.90
52034;DHT22;38045;52.988;6.536;2022-09-09T14:03:10;20.40;99.90
52034;DHT22;38045;52.988;6.536;2022-09-09T14:05:36;20.20;99.90
52034;DHT22;38045;52.988;6.536;2022-09-09T14:08:04;20.00;99.90
52034;DHT22;38045;52.988;6.536;2022-09-09T14:10:30;19.80;99.90
52034;DHT22;38045;52.988;6.536;2022-09-09T14:12:55;19.40;99.90
52034;DHT22;38045;52.988;6.536;2022-09-09T14:15:21;19.10;99.90
52034;DHT22;38045;52.988;6.536;2022-09-09T14:17:47;18.90;99.90
52034;DHT22;38045;52.988;6.536;2022-09-09T14:20:14;18.70;99.90
52034;DHT22;38045;52.988;6.536;2022-09-09T14:22:41;18.90;99.90
52034;DHT22;38045;52.988;6.536;2022-09-09T14:25:07;18.90;99.90
52034;DHT22;38045;52.988;6.536;2022-09-09T14:27:33;19.20;99.90
52034;DHT22;38045;52.988;6.536;2022-09-09T14:29:59;19.40;99.90
52034;DHT22;38045;52.988;6.536;2022-09-09T14:32:26;19.80;99.90
52034;DHT22;38045;52.988;6.536;2022-09-09T14:34:52;20.00;99.90
52034;DHT22;38045;52.988;6.536;2022-09-09T14:37:18;20.20;99.90
52034;DHT22;38045;52.988;6.536;2022-09-09T14:39:44;20.40;99.90
52034;DHT22;38045;52.988;6.536;2022-09-09T14:42:14;20.50;99.90
52034;DHT22;38045;52.988;6.536;2022-09-09T14:44:40;20.50;99.90
52034;DHT22;38045;52.988;6.536;2022-09-09T14:47:06;20.20;99.90
52034;DHT22;38045;52.988;6.536;2022-09-09T14:49:36;20.10;99.90
52034;DHT22;38045;52.988;6.536;2022-09-09T14:52:03;20.00;99.90
52034;DHT22;38045;52.988;6.536;2022-09-09T14:54:28;19.80;99.90
52034;DHT22;38045;52.988;6.536;2022-09-09T14:56:54;19.70;99.90
52034;DHT22;38045;52.988;6.536;2022-09-09T14:59:20;19.80;99.90
52034;DHT22;38045;52.988;6.536;2022-09-09T15:01:45;19.80;99.90
52034;DHT22;38045;52.988;6.536;2022-09-09T15:04:12;19.80;99.90
52034;DHT22;38045;52.988;6.536;2022-09-09T15:06:40;19.90;99.90
52034;DHT22;38045;52.988;6.536;2022-09-09T15:09:08;20.00;99.90
52034;DHT22;38045;52.988;6.536;2022-09-09T15:11:36;20.10;99.90
52034;DHT22;38045;52.988;6.536;2022-09-09T15:14:06;20.00;99.90
52034;DHT22;38045;52.988;6.536;2022-09-09T15:16:33;19.90;99.90
52034;DHT22;38045;52.988;6.536;2022-09-09T15:18:59;19.80;99.90
52034;DHT22;38045;52.988;6.536;2022-09-09T15:21:28;19.80;99.90
52034;DHT22;38045;52.988;6.536;2022-09-09T15:23:54;20.00;99.90
52034;DHT22;38045;52.988;6.536;2022-09-09T15:26:20;20.00;99.90
52034;DHT22;38045;52.988;6.536;2022-09-09T15:28:46;19.90;99.90
52034;DHT22;38045;52.988;6.536;2022-09-09T15:31:31;19.80;99.90
52034;DHT22;38045;52.988;6.536;2022-09-09T15:34:03;19.90;99.90
52034;DHT22;38045;52.988;6.536;2022-09-09T15:36:37;20.00;99.90
52034;DHT22;38045;52.988;6.536;2022-09-09T15:39:05;20.10;99.90
52034;DHT22;38045;52.988;6.536;2022-09-09T15:41:31;20.00;99.90
52034;DHT22;38045;52.988;6.536;2022-09-09T15:43:57;19.80;99.90
52034;DHT22;38045;52.988;6.536;2022-09-09T15:46:38;19.70;99.90
52034;DHT22;38045;52.988;6.536;2022-09-09T15:49:08;19.60;99.90
52034;DHT22;38045;52.988;6.536;2022-09-09T15:51:38;19.50;99.90
52034;DHT22;38045;52.988;6.536;2022-09-09T15:54:04;19.40;99.90
52034;DHT22;38045;52.988;6.536;2022-09-09T15:56:31;19.30;99.90
52034;DHT22;38045;52.988;6.536;2022-09-09T15:58:58;19.20;99.90
52034;DHT22;38045;52.988;6.536;2022-09-09T16:01:26;19.10;99.90
52034;DHT22;38045;52.988;6.536;2022-09-09T16:03:52;19.00;99.90
52034;DHT22;38045;52.988;6.536;2022-09-09T16:06:20;18.90;99.90
52034;DHT22;38045;52.988;6.536;2022-09-09T16:08:48;18.80;99.90
52034;DHT22;38045;52.988;6.536;2022-09-09T16:11:21;18.80;99.90
52034;DHT22;38045;52.988;6.536;2022-09-09T16:13:49;18.70;99.90
52034;DHT22;38045;52.988;6.536;2022-09-09T16:16:17;18.70;99.90
52034;DHT22;38045;52.988;6.536;2022-09-09T16:18:45;18.60;99.90
52034;DHT22;38045;52.988;6.536;2022-09-09T16:21:15;18.60;99.90
52034;DHT22;38045;52.988;6.536;2022-09-09T16:23:41;18.50;99.90
52034;DHT22;38045;52.988;6.536;2022-09-09T16:26:11;18.40;99.90
52034;DHT22;38045;52.988;6.536;2022-09-09T16:28:37;18.30;99.90
52034;DHT22;38045;52.988;6.536;2022-09-09T16:31:06;18.20;99.90
52034;DHT22;38045;52.988;6.536;2022-09-09T16:33:32;18.10;99.90
52034;DHT22;38045;52.988;6.536;2022-09-09T16:35:58;18.10;99.90
52034;DHT22;38045;52.988;6.536;2022-09-09T16:38:29;18.00;99.90
52034;DHT22;38045;52.988;6.536;2022-09-09T16:40:59;18.10;99.90
52034;DHT22;38045;52.988;6.536;2022-09-09T16:43:25;18.10;99.90
52034;DHT22;38045;52.988;6.536;2022-09-09T16:45:50;18.10;99.90
52034;DHT22;38045;52.988;6.536;2022-09-09T16:48:16;18.10;99.90
52034;DHT22;38045;52.988;6.536;2022-09-09T16:50:41;18.10;99.90
52034;DHT22;38045;52.988;6.536;2022-09-09T16:53:07;18.10;99.90
52034;DHT22;38045;52.988;6.536;2022-09-09T16:55:40;18.10;99.90
52034;DHT22;38045;52.988;6.536;2022-09-09T16:58:07;18.00;99.90
52034;DHT22;38045;52.988;6.536;2022-09-09T17:00:34;18.00;99.90
52034;DHT22;38045;52.988;6.536;2022-09-09T17:03:00;18.10;99.90
52034;DHT22;38045;52.988;6.536;2022-09-09T17:05:25;18.20;99.90
52034;DHT22;38045;52.988;6.536;2022-09-09T17:07:51;18.40;99.90
52034;DHT22;38045;52.988;6.536;2022-09-09T17:10:17;18.60;99.90
52034;DHT22;38045;52.988;6.536;2022-09-09T17:12:42;18.60;99.90
52034;DHT22;38045;52.988;6.536;2022-09-09T17:15:08;18.50;99.90
52034;DHT22;38045;52.988;6.536;2022-09-09T17:17:34;18.40;99.90
52034;DHT22;38045;52.988;6.536;2022-09-09T17:20:00;18.30;99.90
52034;DHT22;38045;52.988;6.536;2022-09-09T17:22:27;18.20;99.90
52034;DHT22;38045;52.988;6.536;2022-09-09T17:24:52;18.20;99.90
52034;DHT22;38045;52.988;6.536;2022-09-09T17:27:18;18.20;99.90
52034;DHT22;38045;52.988;6.536;2022-09-09T17:29:44;18.10;99.90
52034;DHT22;38045;52.988;6.536;2022-09-09T17:32:10;18.10;99.90
52034;DHT22;38045;52.988;6.536;2022-09-09T17:34:36;18.10;99.90
52034;DHT22;38045;52.988;6.536;2022-09-09T17:37:01;18.00;99.90
52034;DHT22;38045;52.988;6.536;2022-09-09T17:39:27;18.00;99.90
52034;DHT22;38045;52.988;6.536;2022-09-09T17:41:52;18.00;99.90
52034;DHT22;38045;52.988;6.536;2022-09-09T17:44:20;18.00;99.90
52034;DHT22;38045;52.988;6.536;2022-09-09T17:46:46;17.90;99.90
52034;DHT22;38045;52.988;6.536;2022-09-09T17:49:14;17.90;99.90
52034;DHT22;38045;52.988;6.536;2022-09-09T17:51:41;17.90;99.90
52034;DHT22;38045;52.988;6.536;2022-09-09T17:54:18;17.80;99.90
52034;DHT22;38045;52.988;6.536;2022-09-09T17:56:44;17.80;99.90